createdAt,value
2018-12-09T00:00:38.241Z,7.75
2018-12-09T00:01:38.225Z,7.77
2018-12-09T00:02:38.214Z,7.63
2018-12-09T00:03:38.211Z,7.63
2018-12-09T00:04:38.226Z,7.69
2018-12-09T00:05:38.182Z,7.62
2018-12-09T00:06:38.181Z,7.47
2018-12-09T00:07:38.157Z,7.42
2018-12-09T00:08:38.149Z,7.47
2018-12-09T00:09:38.141Z,7.47
2018-12-09T00:10:38.139Z,7.42
2018-12-09T00:11:38.116Z,7.35
2018-12-09T00:12:38.109Z,7.32
2018-12-09T00:13:38.092Z,7.34
2018-12-09T00:14:38.082Z,7.34
2018-12-09T00:15:38.081Z,7.37
2018-12-09T00:16:38.057Z,7.49
2018-12-09T00:17:38.048Z,7.50
2018-12-09T00:18:38.042Z,7.56
2018-12-09T00:19:38.033Z,7.47
2018-12-09T00:20:38.046Z,7.56
2018-12-09T00:21:38.004Z,7.69
2018-12-09T00:22:37.995Z,7.67
2018-12-09T00:23:37.983Z,7.77
2018-12-09T00:24:37.970Z,7.63
2018-12-09T00:25:37.965Z,7.78
2018-12-09T00:26:37.961Z,7.60
2018-12-09T00:27:37.937Z,7.78
2018-12-09T00:28:37.924Z,7.81
2018-12-09T00:29:37.914Z,7.78
2018-12-09T00:30:37.904Z,7.74
2018-12-09T00:31:37.928Z,7.67
2018-12-09T00:32:37.881Z,7.62
2018-12-09T00:33:37.871Z,7.69
2018-12-09T00:34:37.859Z,7.67
2018-12-09T00:35:37.849Z,7.66
2018-12-09T00:36:37.837Z,7.56
2018-12-09T00:37:37.874Z,7.58
2018-12-09T00:38:37.815Z,7.53
2018-12-09T00:39:37.806Z,7.45
2018-12-09T00:40:37.793Z,7.47
2018-12-09T00:41:37.783Z,7.47
2018-12-09T00:42:43.431Z,7.47
2018-12-09T00:43:38.802Z,7.53
2018-12-09T00:44:38.094Z,7.45
2018-12-09T00:45:37.736Z,7.49
2018-12-09T00:46:37.725Z,7.44
2018-12-09T00:47:37.714Z,7.41
2018-12-09T00:48:37.703Z,7.41
2018-12-09T00:49:37.740Z,7.38
2018-12-09T00:50:37.686Z,7.37
2018-12-09T00:51:37.671Z,7.41
2018-12-09T00:52:37.657Z,7.50
2018-12-09T00:53:37.650Z,7.49
2018-12-09T00:54:37.637Z,7.53
2018-12-09T00:55:37.645Z,7.52
2018-12-09T00:56:37.616Z,7.49
2018-12-09T00:57:37.607Z,7.44
2018-12-09T00:58:37.595Z,7.49
2018-12-09T00:59:37.595Z,7.34
2018-12-09T01:00:37.710Z,7.31
2018-12-09T01:01:37.564Z,7.31
2018-12-09T01:02:37.551Z,7.32
2018-12-09T01:03:37.540Z,7.27
2018-12-09T01:04:37.528Z,7.24
2018-12-09T01:05:37.514Z,7.26
2018-12-09T01:06:37.527Z,7.31
2018-12-09T01:07:37.497Z,7.31
2018-12-09T01:08:37.483Z,7.41
2018-12-09T01:09:37.472Z,7.41
2018-12-09T01:10:37.463Z,7.37
2018-12-09T01:11:37.448Z,7.38
2018-12-09T01:12:37.473Z,7.29
2018-12-09T01:13:37.435Z,7.38
2018-12-09T01:14:37.416Z,7.37
2018-12-09T01:15:37.406Z,7.47
2018-12-09T01:16:37.397Z,7.47
2018-12-09T01:17:37.383Z,7.44
2018-12-09T01:18:37.404Z,7.53
2018-12-09T01:19:37.367Z,7.56
2018-12-09T01:20:37.349Z,7.55
2018-12-09T01:21:37.338Z,7.59
2018-12-09T01:22:37.326Z,7.71
2018-12-09T01:23:37.317Z,7.60
2018-12-09T01:24:37.342Z,7.66
2018-12-09T01:25:37.298Z,7.71
2018-12-09T01:26:37.288Z,7.67
2018-12-09T01:27:37.275Z,7.79
2018-12-09T01:28:37.267Z,7.84
2018-12-09T01:29:37.253Z,7.90
2018-12-09T01:30:37.270Z,7.92
2018-12-09T01:31:37.228Z,7.96
2018-12-09T01:32:37.216Z,7.96
2018-12-09T01:33:37.204Z,7.99
2018-12-09T01:34:37.197Z,7.97
2018-12-09T01:35:37.187Z,7.92
2018-12-09T01:36:37.190Z,7.94
2018-12-09T01:37:37.161Z,8.02
2018-12-09T01:38:37.151Z,8.07
2018-12-09T01:39:37.138Z,8.07
2018-12-09T01:40:37.150Z,8.02
2018-12-09T01:41:37.127Z,8.02
2018-12-09T01:42:37.109Z,8.07
2018-12-09T01:43:37.093Z,7.99
2018-12-09T01:44:37.083Z,8.02
2018-12-09T01:45:37.072Z,8.11
2018-12-09T01:46:37.096Z,8.02
2018-12-09T01:47:37.054Z,8.07
2018-12-09T01:48:37.039Z,8.07
2018-12-09T01:49:37.028Z,8.02
2018-12-09T01:50:37.014Z,8.03
2018-12-09T01:51:37.006Z,8.02
2018-12-09T01:52:37.032Z,8.10
2018-12-09T01:53:36.991Z,8.07
2018-12-09T01:54:36.979Z,8.04
2018-12-09T01:55:36.960Z,8.02
2018-12-09T01:56:36.957Z,8.08
2018-12-09T01:57:36.940Z,8.18
2018-12-09T01:58:36.949Z,8.14
2018-12-09T01:59:36.915Z,8.15
2018-12-09T02:00:36.988Z,8.15
2018-12-09T02:01:36.895Z,8.17
2018-12-09T02:02:36.884Z,8.21
2018-12-09T02:03:36.872Z,8.17
2018-12-09T02:04:36.891Z,8.18
2018-12-09T02:05:36.849Z,8.07
2018-12-09T02:06:36.843Z,8.03
2018-12-09T02:07:36.831Z,8.08
2018-12-09T02:08:36.815Z,8.02
2018-12-09T02:09:36.803Z,8.03
2018-12-09T02:10:36.805Z,8.00
2018-12-09T02:11:36.816Z,8.07
2018-12-09T02:12:36.771Z,8.08
2018-12-09T02:13:36.768Z,8.08
2018-12-09T02:14:36.749Z,8.03
2018-12-09T02:15:36.738Z,8.08
2018-12-09T02:16:36.726Z,8.03
2018-12-09T02:17:36.728Z,8.11
2018-12-09T02:18:36.704Z,8.04
2018-12-09T02:19:36.698Z,7.94
2018-12-09T02:20:36.683Z,7.92
2018-12-09T02:21:36.709Z,7.93
2018-12-09T02:22:36.659Z,8.08
2018-12-09T02:23:36.647Z,8.03
2018-12-09T02:24:36.636Z,8.11
2018-12-09T02:25:36.633Z,8.08
2018-12-09T02:26:36.620Z,7.93
2018-12-09T02:27:36.637Z,7.99
2018-12-09T02:28:36.593Z,8.10
2018-12-09T02:29:36.582Z,8.02
2018-12-09T02:30:36.572Z,8.00
2018-12-09T02:31:36.565Z,7.99
2018-12-09T02:32:36.547Z,7.96
2018-12-09T02:33:36.551Z,7.87
2018-12-09T02:34:36.530Z,7.89
2018-12-09T02:35:36.518Z,7.89
2018-12-09T02:36:36.519Z,7.89
2018-12-09T02:37:36.500Z,7.82
2018-12-09T02:38:36.494Z,7.84
2018-12-09T02:39:36.470Z,7.89
2018-12-09T02:40:36.459Z,7.93
2018-12-09T02:41:36.462Z,7.85
2018-12-09T02:42:36.435Z,7.84
2018-12-09T02:43:36.432Z,7.79
2018-12-09T02:44:36.450Z,7.90
2018-12-09T02:45:36.405Z,7.82
2018-12-09T02:46:36.394Z,7.87
2018-12-09T02:47:36.383Z,7.87
2018-12-09T02:48:36.371Z,7.90
2018-12-09T02:49:36.368Z,7.92
2018-12-09T02:50:36.372Z,7.87
2018-12-09T02:51:36.338Z,7.89
2018-12-09T02:52:36.331Z,7.89
2018-12-09T02:53:36.315Z,7.97
2018-12-09T02:54:36.303Z,7.87
2018-12-09T02:55:36.301Z,7.93
2018-12-09T02:56:36.306Z,7.84
2018-12-09T02:57:36.269Z,7.84
2018-12-09T02:58:36.258Z,7.79
2018-12-09T02:59:36.248Z,7.79
2018-12-09T03:00:36.237Z,7.82
2018-12-09T03:01:36.229Z,7.78
2018-12-09T03:02:36.233Z,7.79
2018-12-09T03:03:36.209Z,7.77
2018-12-09T03:04:36.198Z,7.78
2018-12-09T03:05:36.180Z,7.67
2018-12-09T03:06:36.184Z,7.71
2018-12-09T03:07:36.160Z,7.63
2018-12-09T03:08:36.148Z,7.69
2018-12-09T03:09:36.183Z,7.49
2018-12-09T03:10:36.133Z,7.45
2018-12-09T03:11:36.113Z,7.41
2018-12-09T03:12:36.111Z,7.27
2018-12-09T03:13:36.093Z,7.22
2018-12-09T03:14:36.083Z,7.12
2018-12-09T03:15:36.106Z,7.17
2018-12-09T03:16:36.066Z,7.02
2018-12-09T03:17:36.048Z,7.04
2018-12-09T03:18:36.035Z,7.02
2018-12-09T03:19:36.025Z,7.04
2018-12-09T03:20:36.015Z,6.94
2018-12-09T03:21:36.038Z,6.97
2018-12-09T03:22:35.995Z,6.90
2018-12-09T03:23:35.982Z,6.94
2018-12-09T03:24:35.969Z,6.94
2018-12-09T03:25:36.036Z,6.91
2018-12-09T03:26:35.947Z,6.94
2018-12-09T03:27:35.949Z,6.79
2018-12-09T03:28:35.932Z,6.89
2018-12-09T03:29:35.915Z,6.77
2018-12-09T03:30:35.903Z,6.80
2018-12-09T03:31:35.895Z,6.76
2018-12-09T03:32:35.919Z,6.79
2018-12-09T03:33:35.870Z,6.86
2018-12-09T03:34:35.878Z,6.84
2018-12-09T03:35:35.855Z,6.80
2018-12-09T03:36:35.836Z,6.80
2018-12-09T03:37:35.827Z,6.84
2018-12-09T03:38:35.826Z,6.87
2018-12-09T03:39:35.804Z,6.76
2018-12-09T03:40:35.806Z,6.76
2018-12-09T03:41:35.785Z,6.83
2018-12-09T03:42:35.781Z,6.86
2018-12-09T03:43:35.762Z,6.83
2018-12-09T03:44:35.751Z,6.80
2018-12-09T03:45:35.751Z,6.81
2018-12-09T03:46:35.726Z,6.79
2018-12-09T03:47:35.720Z,6.81
2018-12-09T03:48:35.715Z,6.86
2018-12-09T03:49:35.692Z,6.84
2018-12-09T03:50:35.715Z,6.89
2018-12-09T03:51:35.680Z,6.87
2018-12-09T03:52:35.660Z,6.86
2018-12-09T03:53:35.655Z,6.87
2018-12-09T03:54:35.645Z,6.84
2018-12-09T03:55:35.629Z,6.95
2018-12-09T03:56:35.704Z,6.87
2018-12-09T03:57:35.606Z,6.86
2018-12-09T03:58:35.598Z,6.87
2018-12-09T03:59:35.587Z,6.90
2018-12-09T04:00:35.580Z,6.87
2018-12-09T04:01:35.561Z,6.91
2018-12-09T04:02:35.584Z,6.97
2018-12-09T04:03:35.541Z,6.94
2018-12-09T04:04:35.527Z,6.98
2018-12-09T04:05:35.518Z,7.01
2018-12-09T04:06:35.510Z,6.94
2018-12-09T04:07:35.498Z,6.97
2018-12-09T04:08:35.517Z,6.90
2018-12-09T04:09:35.473Z,6.98
2018-12-09T04:10:35.567Z,6.94
2018-12-09T04:11:35.452Z,6.95
2018-12-09T04:12:35.444Z,6.94
2018-12-09T04:13:35.430Z,6.94
2018-12-09T04:14:35.451Z,6.98
2018-12-09T04:15:35.408Z,6.94
2018-12-09T04:16:35.394Z,6.94
2018-12-09T04:17:35.384Z,6.99
2018-12-09T04:18:35.379Z,7.07
2018-12-09T04:19:35.372Z,6.91
2018-12-09T04:20:35.387Z,6.97
2018-12-09T04:21:35.340Z,6.94
2018-12-09T04:22:35.330Z,6.95
2018-12-09T04:23:35.318Z,6.94
2018-12-09T04:24:35.308Z,6.98
2018-12-09T04:25:35.312Z,6.90
2018-12-09T04:26:35.319Z,6.91
2018-12-09T04:27:35.276Z,6.91
2018-12-09T04:28:35.266Z,6.97
2018-12-09T04:29:35.252Z,6.98
2018-12-09T04:30:35.241Z,6.91
2018-12-09T04:31:35.237Z,6.94
2018-12-09T04:32:35.253Z,7.02
2018-12-09T04:33:35.209Z,6.97
2018-12-09T04:34:35.199Z,6.94
2018-12-09T04:35:35.187Z,7.04
2018-12-09T04:36:35.175Z,6.91
2018-12-09T04:37:35.170Z,6.95
2018-12-09T04:38:35.190Z,7.01
2018-12-09T04:39:35.140Z,7.01
2018-12-09T04:40:35.131Z,7.04
2018-12-09T04:41:35.118Z,7.07
2018-12-09T04:42:35.111Z,7.07
2018-12-09T04:43:35.107Z,7.12
2018-12-09T04:44:35.129Z,7.05
2018-12-09T04:45:35.074Z,7.01
2018-12-09T04:46:35.065Z,7.02
2018-12-09T04:47:35.055Z,7.04
2018-12-09T04:48:35.042Z,7.16
2018-12-09T04:49:35.030Z,7.05
2018-12-09T04:50:35.037Z,7.04
2018-12-09T04:51:35.009Z,7.08
2018-12-09T04:52:35.003Z,7.17
2018-12-09T04:53:34.998Z,7.12
2018-12-09T04:54:34.973Z,7.12
2018-12-09T04:55:34.979Z,7.13
2018-12-09T04:56:34.956Z,7.07
2018-12-09T04:57:34.945Z,7.12
2018-12-09T04:58:34.932Z,7.15
2018-12-09T04:59:34.920Z,7.17
2018-12-09T05:00:34.943Z,7.22
2018-12-09T05:01:34.899Z,7.16
2018-12-09T05:02:34.887Z,7.16
2018-12-09T05:03:34.880Z,7.20
2018-12-09T05:04:34.866Z,7.16
2018-12-09T05:05:34.853Z,7.19
2018-12-09T05:06:34.856Z,7.16
2018-12-09T05:07:34.832Z,7.16
2018-12-09T05:08:34.822Z,7.23
2018-12-09T05:09:34.820Z,7.09
2018-12-09T05:10:34.833Z,7.16
2018-12-09T05:11:34.789Z,7.17
2018-12-09T05:12:34.779Z,7.13
2018-12-09T05:13:34.764Z,7.01
2018-12-09T05:14:34.753Z,7.09
2018-12-09T05:15:34.748Z,7.19
2018-12-09T05:16:34.748Z,7.05
2018-12-09T05:17:34.722Z,7.13
2018-12-09T05:18:34.711Z,7.07
2018-12-09T05:19:34.702Z,7.13
2018-12-09T05:20:34.688Z,7.13
2018-12-09T05:21:34.716Z,7.17
2018-12-09T05:22:34.665Z,7.13
2018-12-09T05:23:34.655Z,7.13
2018-12-09T05:24:34.647Z,7.17
2018-12-09T05:25:34.637Z,7.12
2018-12-09T05:26:34.623Z,7.09
2018-12-09T05:27:34.638Z,7.09
2018-12-09T05:28:34.602Z,7.19
2018-12-09T05:29:34.592Z,7.16
2018-12-09T05:30:34.603Z,7.17
2018-12-09T05:31:34.568Z,7.26
2018-12-09T05:32:34.558Z,7.29
2018-12-09T05:33:34.579Z,7.24
2018-12-09T05:34:34.535Z,7.32
2018-12-09T05:35:34.523Z,7.32
2018-12-09T05:36:34.513Z,7.35
2018-12-09T05:37:34.502Z,7.32
2018-12-09T05:38:34.490Z,7.41
2018-12-09T05:39:34.495Z,7.38
2018-12-09T05:40:34.466Z,7.35
2018-12-09T05:41:34.517Z,7.38
2018-12-09T05:42:34.447Z,7.37
2018-12-09T05:43:34.434Z,7.37
2018-12-09T05:44:34.450Z,7.35
2018-12-09T05:45:34.412Z,7.29
2018-12-09T05:46:34.410Z,7.26
2018-12-09T05:47:34.418Z,7.29
2018-12-09T05:48:34.379Z,7.26
2018-12-09T05:49:34.368Z,7.29
2018-12-09T05:50:34.374Z,7.26
2018-12-09T05:51:34.345Z,7.31
2018-12-09T05:52:34.335Z,7.29
2018-12-09T05:53:34.324Z,7.26
2018-12-09T05:54:34.310Z,7.27
2018-12-09T05:55:34.312Z,7.26
2018-12-09T05:56:34.324Z,7.23
2018-12-09T05:57:34.282Z,7.17
2018-12-09T05:58:34.271Z,7.12
2018-12-09T05:59:34.256Z,7.20
2018-12-09T06:00:34.269Z,7.08
2018-12-09T06:01:34.234Z,7.02
2018-12-09T06:02:34.222Z,7.02
2018-12-09T06:03:34.214Z,7.01
2018-12-09T06:04:34.202Z,6.91
2018-12-09T06:05:34.219Z,6.76
2018-12-09T06:06:34.190Z,6.77
2018-12-09T06:07:34.168Z,6.68
2018-12-09T06:08:34.160Z,6.53
2018-12-09T06:09:34.150Z,6.32
2018-12-09T06:10:34.134Z,6.33
2018-12-09T06:11:34.170Z,6.21
2018-12-09T06:12:34.112Z,6.13
2018-12-09T06:13:34.100Z,6.13
2018-12-09T06:14:34.094Z,6.11
2018-12-09T06:15:34.079Z,6.03
2018-12-09T06:16:34.067Z,6.00
2018-12-09T06:17:34.093Z,6.03
2018-12-09T06:18:34.046Z,6.00
2018-12-09T06:19:34.044Z,6.00
2018-12-09T06:20:34.022Z,5.98
2018-12-09T06:21:34.014Z,5.98
2018-12-09T06:22:34.002Z,6.00
2018-12-09T06:23:34.036Z,5.96
2018-12-09T06:24:33.976Z,5.89
2018-12-09T06:25:33.970Z,5.95
2018-12-09T06:26:33.955Z,6.00
2018-12-09T06:27:33.946Z,5.93
2018-12-09T06:28:33.934Z,6.00
2018-12-09T06:29:33.935Z,5.95
2018-12-09T06:30:33.926Z,5.98
2018-12-09T06:31:33.916Z,5.96
2018-12-09T06:32:33.890Z,5.95
2018-12-09T06:33:33.878Z,5.92
2018-12-09T06:34:33.867Z,6.01
2018-12-09T06:35:33.871Z,5.98
2018-12-09T06:36:33.843Z,6.00
2018-12-09T06:37:33.840Z,6.00
2018-12-09T06:38:33.821Z,6.01
2018-12-09T06:39:33.813Z,6.01
2018-12-09T06:40:33.825Z,5.96
2018-12-09T06:41:33.789Z,5.98
2018-12-09T06:42:33.780Z,5.98
2018-12-09T06:43:33.773Z,6.00
2018-12-09T06:44:33.757Z,5.98
2018-12-09T06:45:33.746Z,5.96
2018-12-09T06:46:33.749Z,5.95
2018-12-09T06:47:33.724Z,5.93
2018-12-09T06:48:33.747Z,5.98
2018-12-09T06:49:33.709Z,6.01
2018-12-09T06:50:33.690Z,5.89
2018-12-09T06:51:33.679Z,5.98
2018-12-09T06:52:33.666Z,5.95
2018-12-09T06:53:33.656Z,6.00
2018-12-09T06:54:33.659Z,5.95
2018-12-09T06:55:33.667Z,5.95
2018-12-09T06:56:33.624Z,5.98
2018-12-09T06:57:33.612Z,5.95
2018-12-09T06:58:33.613Z,5.91
2018-12-09T06:59:33.622Z,6.04
2018-12-09T07:00:33.578Z,5.98
2018-12-09T07:01:33.577Z,5.98
2018-12-09T07:02:33.559Z,6.04
2018-12-09T07:03:33.544Z,6.06
2018-12-09T07:04:33.535Z,6.07
2018-12-09T07:05:33.535Z,6.09
2018-12-09T07:06:33.510Z,6.04
2018-12-09T07:07:33.505Z,5.98
2018-12-09T07:08:33.489Z,6.10
2018-12-09T07:09:33.514Z,6.10
2018-12-09T07:10:33.468Z,6.18
2018-12-09T07:11:33.457Z,6.13
2018-12-09T07:12:33.444Z,6.11
2018-12-09T07:13:33.437Z,6.10
2018-12-09T07:14:33.424Z,6.14
2018-12-09T07:15:33.443Z,6.14
2018-12-09T07:16:33.401Z,6.14
2018-12-09T07:17:33.388Z,6.13
2018-12-09T07:18:33.379Z,6.13
2018-12-09T07:19:33.373Z,6.11
2018-12-09T07:20:33.354Z,6.14
2018-12-09T07:21:33.356Z,6.14
2018-12-09T07:22:33.334Z,6.14
2018-12-09T07:23:33.322Z,6.11
2018-12-09T07:24:33.310Z,6.09
2018-12-09T07:25:33.308Z,6.11
2018-12-09T07:26:33.302Z,6.11
2018-12-09T07:27:33.278Z,6.07
2018-12-09T07:28:33.265Z,6.14
2018-12-09T07:29:33.255Z,6.09
2018-12-09T07:30:33.244Z,6.09
2018-12-09T07:31:33.251Z,6.13
2018-12-09T07:32:33.226Z,6.14
2018-12-09T07:33:33.212Z,6.07
2018-12-09T07:34:33.212Z,6.04
2018-12-09T07:35:33.189Z,6.13
2018-12-09T07:36:33.204Z,6.11
2018-12-09T07:37:33.183Z,6.09
2018-12-09T07:38:33.156Z,6.07
2018-12-09T07:39:33.145Z,6.07
2018-12-09T07:40:33.132Z,6.14
2018-12-09T07:41:33.122Z,6.09
2018-12-09T07:42:33.144Z,6.11
2018-12-09T07:43:33.104Z,6.10
2018-12-09T07:44:33.090Z,6.06
2018-12-09T07:45:33.075Z,6.10
2018-12-09T07:46:33.066Z,6.03
2018-12-09T07:47:33.057Z,6.04
2018-12-09T07:48:33.058Z,5.98
2018-12-09T07:49:33.044Z,6.01
2018-12-09T07:50:33.022Z,6.00
2018-12-09T07:51:33.044Z,6.03
2018-12-09T07:52:33.000Z,6.01
2018-12-09T07:53:32.988Z,6.00
2018-12-09T07:54:33.075Z,5.98
2018-12-09T07:55:32.976Z,6.00
2018-12-09T07:56:32.956Z,6.04
2018-12-09T07:57:32.957Z,5.96
2018-12-09T07:58:32.933Z,6.00
2018-12-09T07:59:32.921Z,6.06
2018-12-09T08:00:32.915Z,6.07
2018-12-09T08:01:32.908Z,6.10
2018-12-09T08:02:32.902Z,6.10
2018-12-09T08:03:32.911Z,6.11
2018-12-09T08:04:32.866Z,6.07
2018-12-09T08:05:32.856Z,6.06
2018-12-09T08:06:32.844Z,6.07
2018-12-09T08:07:32.842Z,5.96
2018-12-09T08:08:32.821Z,6.00
2018-12-09T08:09:32.855Z,6.03
2018-12-09T08:10:32.800Z,6.07
2018-12-09T08:11:32.789Z,6.01
2018-12-09T08:12:32.776Z,6.06
2018-12-09T08:13:32.772Z,5.96
2018-12-09T08:14:32.758Z,6.07
2018-12-09T08:15:32.757Z,6.01
2018-12-09T08:16:32.739Z,6.04
2018-12-09T08:17:32.842Z,6.04
2018-12-09T08:18:32.712Z,6.06
2018-12-09T08:19:32.708Z,6.00
2018-12-09T08:20:32.726Z,5.98
2018-12-09T08:21:32.700Z,6.04
2018-12-09T08:22:32.668Z,5.96
2018-12-09T08:23:32.727Z,5.95
2018-12-09T08:24:32.683Z,5.91
2018-12-09T08:25:32.641Z,5.95
2018-12-09T08:26:32.638Z,6.00
2018-12-09T08:27:32.611Z,5.98
2018-12-09T08:28:32.600Z,5.96
2018-12-09T08:29:32.589Z,5.89
2018-12-09T08:30:32.577Z,5.98
2018-12-09T08:31:32.611Z,5.89
2018-12-09T08:32:32.555Z,5.89
2018-12-09T08:33:32.543Z,5.86
2018-12-09T08:34:32.532Z,5.93
2018-12-09T08:35:32.525Z,5.86
2018-12-09T08:36:32.513Z,5.82
2018-12-09T08:37:32.540Z,5.82
2018-12-09T08:38:32.486Z,5.91
2018-12-09T08:39:32.476Z,5.86
2018-12-09T08:40:32.464Z,5.78
2018-12-09T08:41:32.455Z,5.74
2018-12-09T08:42:32.443Z,5.85
2018-12-09T08:43:32.447Z,5.73
2018-12-09T08:44:32.420Z,5.75
2018-12-09T08:45:32.410Z,5.81
2018-12-09T08:46:32.397Z,5.81
2018-12-09T08:47:32.400Z,5.74
2018-12-09T08:48:32.374Z,5.74
2018-12-09T08:49:32.374Z,5.78
2018-12-09T08:50:32.354Z,5.78
2018-12-09T08:51:32.342Z,5.82
2018-12-09T08:52:32.368Z,5.75
2018-12-09T08:53:32.318Z,5.77
2018-12-09T08:54:32.309Z,5.78
2018-12-09T08:55:32.315Z,5.78
2018-12-09T08:56:32.285Z,5.74
2018-12-09T08:57:32.276Z,5.74
2018-12-09T08:58:32.287Z,5.74
2018-12-09T08:59:32.253Z,5.70
2018-12-09T09:00:32.243Z,5.73
2018-12-09T09:01:32.239Z,5.78
2018-12-09T09:02:32.223Z,5.74
2018-12-09T09:03:32.207Z,5.81
2018-12-09T09:04:32.386Z,5.74
2018-12-09T09:05:32.187Z,5.74
2018-12-09T09:06:32.176Z,5.73
2018-12-09T09:07:32.181Z,5.81
2018-12-09T09:08:32.152Z,5.81
2018-12-09T09:09:32.142Z,5.83
2018-12-09T09:10:32.147Z,5.88
2018-12-09T09:11:32.153Z,5.89
2018-12-09T09:12:32.107Z,5.78
2018-12-09T09:13:32.102Z,5.89
2018-12-09T09:14:32.085Z,5.92
2018-12-09T09:15:32.071Z,5.91
2018-12-09T09:16:32.066Z,5.98
2018-12-09T09:17:32.074Z,5.96
2018-12-09T09:18:32.042Z,6.04
2018-12-09T09:19:32.036Z,5.96
2018-12-09T09:20:32.020Z,6.01
2018-12-09T09:21:32.008Z,6.10
2018-12-09T09:22:32.000Z,6.16
2018-12-09T09:23:32.019Z,6.13
2018-12-09T09:24:31.980Z,6.06
2018-12-09T09:25:31.964Z,6.14
2018-12-09T09:26:31.953Z,6.11
2018-12-09T09:27:31.941Z,6.16
2018-12-09T09:28:31.929Z,6.14
2018-12-09T09:29:32.149Z,6.18
2018-12-09T09:30:31.906Z,6.10
2018-12-09T09:31:31.894Z,6.13
2018-12-09T09:32:31.892Z,6.26
2018-12-09T09:33:31.881Z,6.21
2018-12-09T09:34:31.862Z,6.26
2018-12-09T09:35:31.876Z,6.30
2018-12-09T09:36:31.838Z,6.30
2018-12-09T09:37:31.829Z,6.29
2018-12-09T09:38:31.816Z,6.32
2018-12-09T09:39:31.816Z,6.25
2018-12-09T09:40:31.800Z,6.29
2018-12-09T09:41:31.834Z,6.30
2018-12-09T09:42:31.774Z,6.28
2018-12-09T09:43:31.763Z,6.21
2018-12-09T09:44:31.752Z,6.10
2018-12-09T09:45:31.763Z,6.22
2018-12-09T09:46:31.730Z,6.14
2018-12-09T09:47:31.731Z,6.10
2018-12-09T09:48:31.706Z,6.13
2018-12-09T09:49:31.695Z,6.18
2018-12-09T09:50:31.686Z,6.11
2018-12-09T09:51:31.676Z,6.10
2018-12-09T09:52:31.719Z,6.09
2018-12-09T09:53:31.657Z,6.09
2018-12-09T09:54:31.642Z,6.06
2018-12-09T09:55:31.630Z,6.03
2018-12-09T09:56:31.618Z,6.11
2018-12-09T09:57:31.615Z,6.11
2018-12-09T09:58:31.620Z,6.10
2018-12-09T09:59:31.586Z,6.07
2018-12-09T10:00:31.576Z,6.14
2018-12-09T10:01:31.565Z,6.16
2018-12-09T10:02:31.555Z,6.10
2018-12-09T10:03:31.545Z,6.29
2018-12-09T10:04:31.568Z,6.30
2018-12-09T10:05:31.538Z,6.33
2018-12-09T10:06:31.508Z,6.25
2018-12-09T10:07:31.500Z,6.41
2018-12-09T10:08:31.487Z,6.41
2018-12-09T10:09:31.479Z,6.46
2018-12-09T10:10:32.312Z,6.50
2018-12-09T10:11:31.453Z,6.54
2018-12-09T10:12:31.443Z,6.46
2018-12-09T10:13:31.434Z,6.54
2018-12-09T10:14:31.432Z,6.38
2018-12-09T10:15:31.422Z,6.44
2018-12-09T10:16:31.402Z,6.47
2018-12-09T10:17:31.400Z,6.48
2018-12-09T10:18:31.374Z,6.40
2018-12-09T10:19:31.364Z,6.38
2018-12-09T10:20:31.378Z,6.40
2018-12-09T10:21:31.345Z,6.33
2018-12-09T10:22:31.340Z,6.38
2018-12-09T10:23:31.326Z,6.26
2018-12-09T10:24:31.407Z,6.46
2018-12-09T10:25:31.299Z,6.32
2018-12-09T10:26:36.367Z,6.36
2018-12-09T10:27:32.274Z,6.35
2018-12-09T10:28:31.266Z,6.33
2018-12-09T10:29:31.258Z,6.41
2018-12-09T10:30:31.243Z,6.36
2018-12-09T10:31:31.232Z,6.40
2018-12-09T10:32:31.261Z,6.47
2018-12-09T10:33:31.211Z,6.47
2018-12-09T10:34:38.601Z,6.48
2018-12-09T10:35:32.192Z,6.54
2018-12-09T10:36:31.179Z,6.61
2018-12-09T10:37:31.168Z,6.68
2018-12-09T10:38:31.201Z,6.61
2018-12-09T10:39:31.148Z,6.71
2018-12-09T10:40:31.135Z,6.69
2018-12-09T10:41:31.126Z,6.71
2018-12-09T10:42:31.166Z,6.77
2018-12-09T10:43:31.098Z,6.65
2018-12-09T10:44:31.122Z,6.73
2018-12-09T10:45:31.077Z,6.73
2018-12-09T10:46:31.067Z,6.79
2018-12-09T10:47:31.061Z,6.73
2018-12-09T10:48:31.043Z,6.81
2018-12-09T10:49:31.033Z,6.83
2018-12-09T10:50:31.033Z,6.80
2018-12-09T10:51:31.024Z,6.72
2018-12-09T10:52:31.001Z,6.73
2018-12-09T10:53:30.995Z,6.80
2018-12-09T10:54:30.977Z,6.76
2018-12-09T10:55:30.966Z,6.79
2018-12-09T10:56:30.978Z,6.84
2018-12-09T10:57:30.943Z,6.81
2018-12-09T10:58:30.935Z,6.80
2018-12-09T10:59:30.942Z,6.79
2018-12-09T11:00:30.911Z,6.80
2018-12-09T11:01:30.900Z,6.76
2018-12-09T11:02:30.900Z,6.81
2018-12-09T11:03:30.881Z,6.77
2018-12-09T11:04:30.865Z,6.83
2018-12-09T11:05:30.863Z,6.86
2018-12-09T11:06:30.847Z,6.79
2018-12-09T11:07:30.856Z,6.84
2018-12-09T11:08:30.824Z,6.79
2018-12-09T11:09:30.811Z,6.83
2018-12-09T11:10:30.799Z,6.83
2018-12-09T11:11:30.794Z,6.79
2018-12-09T11:12:30.776Z,6.86
2018-12-09T11:13:30.802Z,6.81
2018-12-09T11:14:30.757Z,6.80
2018-12-09T11:15:30.747Z,6.81
2018-12-09T11:16:30.734Z,6.87
2018-12-09T11:17:30.739Z,6.97
2018-12-09T11:18:30.714Z,6.91
2018-12-09T11:19:30.731Z,6.90
2018-12-09T11:20:30.691Z,6.94
2018-12-09T11:21:31.003Z,7.04
2018-12-09T11:22:30.667Z,6.89
2018-12-09T11:23:30.666Z,6.95
2018-12-09T11:24:30.646Z,7.07
2018-12-09T11:25:30.716Z,7.07
2018-12-09T11:26:30.622Z,7.07
2018-12-09T11:27:30.615Z,7.01
2018-12-09T11:28:30.602Z,7.02
2018-12-09T11:29:30.595Z,7.20
2018-12-09T11:30:30.580Z,7.16
2018-12-09T11:31:30.581Z,7.15
2018-12-09T11:32:30.557Z,7.13
2018-12-09T11:33:30.547Z,7.17
2018-12-09T11:34:30.534Z,7.09
2018-12-09T11:35:30.529Z,7.13
2018-12-09T11:36:30.533Z,7.07
2018-12-09T11:37:30.512Z,7.16
2018-12-09T11:38:30.493Z,7.22
2018-12-09T11:39:30.508Z,7.12
2018-12-09T11:40:30.470Z,7.09
2018-12-09T11:41:30.462Z,7.23
2018-12-09T11:42:30.477Z,7.27
2018-12-09T11:43:30.468Z,7.31
2018-12-09T11:44:30.423Z,7.31
2018-12-09T11:45:30.435Z,7.35
2018-12-09T11:46:30.431Z,7.35
2018-12-09T11:47:30.416Z,7.32
2018-12-09T11:48:30.411Z,7.35
2018-12-09T11:49:30.376Z,7.35
2018-12-09T11:50:30.360Z,7.35
2018-12-09T11:51:30.343Z,7.40
2018-12-09T11:52:30.343Z,7.42
2018-12-09T11:53:30.323Z,7.35
2018-12-09T11:54:30.351Z,7.35
2018-12-09T11:55:30.301Z,7.32
2018-12-09T11:56:30.301Z,7.31
2018-12-09T11:57:30.280Z,7.24
2018-12-09T11:58:30.281Z,7.23
2018-12-09T11:59:30.256Z,7.24
2018-12-09T12:00:30.266Z,7.22
2018-12-09T12:01:30.233Z,7.20
2018-12-09T12:02:30.221Z,7.19
2018-12-09T12:03:30.216Z,7.09
2018-12-09T12:04:30.270Z,7.20
2018-12-09T12:05:30.205Z,7.12
2018-12-09T12:06:30.182Z,7.15
2018-12-09T12:07:30.177Z,7.15
2018-12-09T12:08:30.195Z,7.16
2018-12-09T12:09:30.163Z,7.12
2018-12-09T12:10:30.180Z,7.12
2018-12-09T12:11:30.128Z,7.19
2018-12-09T12:12:30.119Z,7.16
2018-12-09T12:13:30.103Z,7.15
2018-12-09T12:14:30.100Z,7.13
2018-12-09T12:15:30.092Z,7.16
2018-12-09T12:16:30.092Z,7.15
2018-12-09T12:17:30.059Z,7.12
2018-12-09T12:18:30.051Z,7.09
2018-12-09T12:19:30.044Z,7.20
2018-12-09T12:20:30.025Z,7.16
2018-12-09T12:21:30.016Z,7.16
2018-12-09T12:22:30.034Z,7.16
2018-12-09T12:23:29.993Z,7.13
2018-12-09T12:24:29.989Z,7.22
2018-12-09T12:25:29.970Z,7.20
2018-12-09T12:26:29.960Z,7.27
2018-12-09T12:27:29.947Z,7.20
2018-12-09T12:28:29.947Z,7.29
2018-12-09T12:29:29.925Z,7.24
2018-12-09T12:30:29.919Z,7.24
2018-12-09T12:31:29.913Z,7.27
2018-12-09T12:32:29.893Z,7.31
2018-12-09T12:33:29.915Z,7.34
2018-12-09T12:34:29.871Z,7.37
2018-12-09T12:35:29.858Z,7.47
2018-12-09T12:36:29.849Z,7.45
2018-12-09T12:37:29.841Z,7.47
2018-12-09T12:38:29.831Z,7.42
2018-12-09T12:39:29.850Z,7.49
2018-12-09T12:40:29.802Z,7.45
2018-12-09T12:41:29.792Z,7.41
2018-12-09T12:42:29.784Z,7.49
2018-12-09T12:43:29.770Z,7.42
2018-12-09T12:44:29.762Z,7.45
2018-12-09T12:45:29.767Z,7.47
2018-12-09T12:46:29.737Z,7.50
2018-12-09T12:47:29.724Z,7.34
2018-12-09T12:48:29.716Z,7.31
2018-12-09T12:49:29.703Z,7.44
2018-12-09T12:50:29.698Z,7.34
2018-12-09T12:51:29.723Z,7.41
2018-12-09T12:52:29.670Z,7.49
2018-12-09T12:53:29.659Z,7.41
2018-12-09T12:54:29.651Z,7.42
2018-12-09T12:55:29.636Z,7.52
2018-12-09T12:56:29.624Z,7.49
2018-12-09T12:57:29.637Z,7.44
2018-12-09T12:58:29.605Z,7.45
2018-12-09T12:59:29.603Z,7.47
2018-12-09T13:00:29.582Z,7.50
2018-12-09T13:01:29.572Z,7.37
2018-12-09T13:02:29.560Z,7.40
2018-12-09T13:03:29.581Z,7.38
2018-12-09T13:04:29.537Z,7.31
2018-12-09T13:05:29.528Z,7.23
2018-12-09T13:06:29.513Z,7.34
2018-12-09T13:07:29.502Z,7.32
2018-12-09T13:08:29.604Z,7.32
2018-12-09T13:09:29.513Z,7.31
2018-12-09T13:10:29.471Z,7.37
2018-12-09T13:11:29.464Z,7.38
2018-12-09T13:12:29.447Z,7.34
2018-12-09T13:13:29.436Z,7.37
2018-12-09T13:14:29.431Z,7.38
2018-12-09T13:15:29.427Z,7.40
2018-12-09T13:16:29.403Z,7.32
2018-12-09T13:17:29.402Z,7.34
2018-12-09T13:18:29.381Z,7.37